createdAt,value
2023-01-19T00:00:51.753Z,20.00
2023-01-19T00:03:18.826Z,23.42
2023-01-19T00:05:46.094Z,21.83
2023-01-19T00:08:16.123Z,19.20
2023-01-19T00:10:44.988Z,23.05
2023-01-19T00:13:12.078Z,13.48
2023-01-19T00:15:39.162Z,17.55
2023-01-19T00:18:06.662Z,16.85
2023-01-19T00:20:35.646Z,16.98
2023-01-19T00:23:04.629Z,21.10
2023-01-19T00:25:31.696Z,22.73
2023-01-19T00:28:00.630Z,25.80
2023-01-19T00:30:28.380Z,16.42
2023-01-19T00:32:55.702Z,19.85
2023-01-19T00:35:22.396Z,20.80
2023-01-19T00:37:49.446Z,15.63
2023-01-19T00:40:16.688Z,20.92
2023-01-19T00:42:48.598Z,17.35
2023-01-19T00:45:21.037Z,20.55
2023-01-19T00:47:49.296Z,14.05
2023-01-19T00:50:17.078Z,18.95
2023-01-19T00:52:44.986Z,16.20
2023-01-19T00:55:13.449Z,19.73
2023-01-19T00:57:40.859Z,16.75
2023-01-19T01:00:15.216Z,18.65
2023-01-19T01:02:44.336Z,17.95
2023-01-19T01:05:12.417Z,15.20
2023-01-19T01:07:41.408Z,12.80
2023-01-19T01:10:10.500Z,17.98
2023-01-19T01:12:37.830Z,18.15
2023-01-19T01:15:10.169Z,14.20
2023-01-19T01:17:37.784Z,26.45
2023-01-19T01:20:05.534Z,18.00
2023-01-19T01:22:32.288Z,10.90
2023-01-19T01:24:59.152Z,11.52
2023-01-19T01:27:26.051Z,10.40
2023-01-19T01:29:52.810Z,8.43
2023-01-19T01:32:19.773Z,6.85
2023-01-19T01:34:46.519Z,12.52
2023-01-19T01:37:13.433Z,5.05
2023-01-19T01:39:40.321Z,5.88
2023-01-19T01:42:17.619Z,6.43
2023-01-19T01:44:52.135Z,3.92
2023-01-19T01:47:23.379Z,4.95
2023-01-19T01:50:03.625Z,6.15
2023-01-19T01:52:33.127Z,3.08
2023-01-19T01:55:01.028Z,4.10
2023-01-19T01:57:28.102Z,2.80
2023-01-19T01:59:56.828Z,3.85
2023-01-19T02:02:46.449Z,4.57
2023-01-19T02:05:17.957Z,7.18
2023-01-19T02:08:22.248Z,4.80
2023-01-19T02:11:08.139Z,3.88
2023-01-19T02:13:38.983Z,3.03
2023-01-19T02:16:10.088Z,4.05
2023-01-19T02:18:38.137Z,5.03
2023-01-19T02:21:26.148Z,3.97
2023-01-19T02:23:55.149Z,4.28
2023-01-19T02:26:25.202Z,3.72
2023-01-19T02:29:08.931Z,3.45
2023-01-19T02:31:37.367Z,7.40
2023-01-19T02:34:06.258Z,3.65
2023-01-19T02:36:44.940Z,6.53
2023-01-19T02:39:12.634Z,14.55
2023-01-19T02:41:46.593Z,5.43
2023-01-19T02:44:15.056Z,7.10
2023-01-19T02:46:41.962Z,6.68
2023-01-19T02:49:08.814Z,5.65
2023-01-19T02:51:35.880Z,10.63
2023-01-19T02:54:27.513Z,13.43
2023-01-19T02:57:18.428Z,5.90
2023-01-19T03:00:21.299Z,7.78
2023-01-19T03:03:27.184Z,5.65
2023-01-19T03:06:18.431Z,13.27
2023-01-19T03:09:01.614Z,5.88
2023-01-19T03:11:37.110Z,7.80
2023-01-19T03:14:15.756Z,4.50
2023-01-19T03:16:55.342Z,6.22
2023-01-19T03:19:27.385Z,6.32
2023-01-19T03:22:10.859Z,4.43
2023-01-19T03:24:41.776Z,4.45
2023-01-19T03:27:40.898Z,3.65
2023-01-19T03:30:16.052Z,4.15
2023-01-19T03:32:48.518Z,3.35
2023-01-19T03:35:17.389Z,5.20
2023-01-19T03:37:46.025Z,3.28
2023-01-19T03:40:14.046Z,2.58
2023-01-19T03:42:42.258Z,3.95
2023-01-19T03:45:09.377Z,4.85
2023-01-19T03:47:36.736Z,2.95
2023-01-19T03:50:08.960Z,3.65
2023-01-19T03:52:35.676Z,4.00
2023-01-19T03:55:04.780Z,2.88
2023-01-19T03:57:32.319Z,3.58
2023-01-19T03:59:59.163Z,3.22
2023-01-19T04:02:25.975Z,6.10
2023-01-19T04:04:52.969Z,6.40
2023-01-19T04:07:19.879Z,10.48
2023-01-19T04:09:46.763Z,3.78
2023-01-19T04:12:13.572Z,3.55
2023-01-19T04:14:40.496Z,4.97
2023-01-19T04:17:07.395Z,1.67
2023-01-19T04:19:34.243Z,2.45
2023-01-19T04:22:02.011Z,1.48
2023-01-19T04:24:28.951Z,3.10
2023-01-19T04:26:56.044Z,2.05
2023-01-19T04:29:24.395Z,3.75
2023-01-19T04:31:51.187Z,5.10
2023-01-19T04:34:17.914Z,3.30
2023-01-19T04:36:45.494Z,1.98
2023-01-19T04:39:12.502Z,3.83
2023-01-19T04:41:39.446Z,3.00
2023-01-19T04:44:06.474Z,3.30
2023-01-19T04:46:33.419Z,3.85
2023-01-19T04:49:00.461Z,7.47
2023-01-19T04:51:28.708Z,5.72
2023-01-19T04:53:55.592Z,3.90
2023-01-19T04:56:22.436Z,4.32
2023-01-19T04:58:49.304Z,6.38
2023-01-19T05:01:16.323Z,7.80
2023-01-19T05:03:43.257Z,6.30
2023-01-19T05:06:09.990Z,4.88
2023-01-19T05:08:36.666Z,10.20
2023-01-19T05:11:03.481Z,4.25
2023-01-19T05:13:30.226Z,5.00
2023-01-19T05:15:56.988Z,2.17
2023-01-19T05:18:24.046Z,4.82
2023-01-19T05:20:51.138Z,7.25
2023-01-19T05:23:17.995Z,6.22
2023-01-19T05:25:44.843Z,11.00
2023-01-19T05:28:11.796Z,5.85
2023-01-19T05:30:38.912Z,11.68
2023-01-19T05:33:06.009Z,8.63
2023-01-19T05:35:36.186Z,12.07
2023-01-19T05:38:03.835Z,9.43
2023-01-19T05:40:30.675Z,8.35
2023-01-19T05:43:01.357Z,11.68
2023-01-19T05:45:28.801Z,5.32
2023-01-19T05:47:56.033Z,8.88
2023-01-19T05:50:23.571Z,18.35
2023-01-19T05:52:53.286Z,3.40
2023-01-19T05:55:20.931Z,18.85
2023-01-19T05:57:47.887Z,8.38
2023-01-19T06:00:15.244Z,10.90
2023-01-19T06:02:42.159Z,13.13
2023-01-19T06:05:09.683Z,17.25
2023-01-19T06:07:36.536Z,8.25
2023-01-19T06:10:03.357Z,13.38
2023-01-19T06:12:30.051Z,12.82
2023-01-19T06:14:56.770Z,6.40
2023-01-19T06:17:23.632Z,5.68
2023-01-19T06:19:50.484Z,16.08
2023-01-19T06:22:17.221Z,10.75
2023-01-19T06:24:43.992Z,14.90
2023-01-19T06:27:11.337Z,10.85
2023-01-19T06:29:38.688Z,10.80
2023-01-19T06:32:05.953Z,7.57
2023-01-19T06:34:32.822Z,11.38
2023-01-19T06:36:59.655Z,12.80
2023-01-19T06:39:27.381Z,13.70
2023-01-19T06:41:54.207Z,11.60
2023-01-19T06:44:21.144Z,16.80
2023-01-19T06:46:49.364Z,17.17
2023-01-19T06:49:16.111Z,22.08
2023-01-19T06:51:42.989Z,10.68
2023-01-19T06:54:09.862Z,15.00
2023-01-19T06:56:36.806Z,12.52
2023-01-19T06:59:03.965Z,12.70
2023-01-19T07:01:30.912Z,17.05
2023-01-19T07:03:57.789Z,14.65
2023-01-19T07:06:24.894Z,15.25
2023-01-19T07:08:51.544Z,32.47
2023-01-19T07:11:26.879Z,29.50
2023-01-19T07:13:58.428Z,20.00
2023-01-19T07:16:25.454Z,34.53
2023-01-19T07:18:52.615Z,27.50
2023-01-19T07:21:19.465Z,21.48
2023-01-19T07:23:49.144Z,20.17
2023-01-19T07:26:18.696Z,20.55
2023-01-19T07:28:47.353Z,17.52
2023-01-19T07:31:15.774Z,11.90
2023-01-19T07:33:42.743Z,22.58
2023-01-19T07:36:10.072Z,14.98
2023-01-19T07:38:36.900Z,16.00
2023-01-19T07:41:06.110Z,12.75
2023-01-19T07:43:33.787Z,18.92
2023-01-19T07:46:03.044Z,15.77
2023-01-19T07:48:30.118Z,15.75
2023-01-19T07:51:10.414Z,17.67
2023-01-19T07:53:40.020Z,23.98
2023-01-19T07:56:07.762Z,26.15
2023-01-19T07:58:34.979Z,12.05
2023-01-19T08:01:07.149Z,17.63
2023-01-19T08:03:34.554Z,14.90
2023-01-19T08:06:02.556Z,20.30
2023-01-19T08:08:33.420Z,15.38
2023-01-19T08:11:00.246Z,19.13
2023-01-19T08:13:27.966Z,18.80
2023-01-19T08:15:55.028Z,17.88
2023-01-19T08:18:22.275Z,10.27
2023-01-19T08:20:49.290Z,17.42
2023-01-19T08:23:17.885Z,15.45
2023-01-19T08:25:45.312Z,10.32
2023-01-19T08:28:14.517Z,19.73
2023-01-19T08:30:43.729Z,19.08
2023-01-19T08:33:12.602Z,18.88
2023-01-19T08:35:47.320Z,18.05
2023-01-19T08:38:14.247Z,18.73
2023-01-19T08:40:42.003Z,17.52
2023-01-19T08:43:14.262Z,25.95
2023-01-19T08:45:51.891Z,15.55
2023-01-19T08:48:22.368Z,29.90
2023-01-19T08:50:50.535Z,19.90
2023-01-19T08:53:17.857Z,12.23
2023-01-19T08:55:44.607Z,18.55
2023-01-19T08:58:11.478Z,19.48
2023-01-19T09:00:39.395Z,22.63
2023-01-19T09:03:08.455Z,28.50
2023-01-19T09:05:38.759Z,18.67
2023-01-19T09:08:09.710Z,18.20
2023-01-19T09:10:37.987Z,18.65
2023-01-19T09:13:11.094Z,24.67
2023-01-19T09:15:39.384Z,22.67
2023-01-19T09:18:10.152Z,16.02
2023-01-19T09:20:39.010Z,14.80
2023-01-19T09:23:06.459Z,23.73
2023-01-19T09:25:33.215Z,12.00
2023-01-19T09:28:00.961Z,13.85
2023-01-19T09:30:28.096Z,16.92
2023-01-19T09:32:54.896Z,19.45
2023-01-19T09:35:21.692Z,15.15
2023-01-19T09:37:48.690Z,12.40
2023-01-19T09:40:16.364Z,21.27
2023-01-19T09:42:47.287Z,9.45
2023-01-19T09:45:36.290Z,10.40
2023-01-19T09:48:11.873Z,20.73
2023-01-19T09:50:46.589Z,13.00
2023-01-19T09:53:27.693Z,17.27
2023-01-19T09:55:54.768Z,10.43
2023-01-19T09:58:22.595Z,17.65
2023-01-19T10:01:02.521Z,14.77
2023-01-19T10:03:30.467Z,12.88
2023-01-19T10:06:04.077Z,13.32
2023-01-19T10:08:46.942Z,12.80
2023-01-19T10:11:26.296Z,15.77
2023-01-19T10:13:54.352Z,12.13
2023-01-19T10:16:53.459Z,12.20
2023-01-19T10:19:46.622Z,9.18
2023-01-19T10:22:25.090Z,10.90
2023-01-19T10:25:05.937Z,19.45
2023-01-19T10:27:35.299Z,16.02
2023-01-19T10:30:02.441Z,10.13
2023-01-19T10:32:35.847Z,13.85
2023-01-19T10:35:14.320Z,7.93
2023-01-19T10:37:41.959Z,13.25
2023-01-19T10:40:11.731Z,14.40
2023-01-19T10:42:41.269Z,14.38
2023-01-19T10:45:40.366Z,7.50
2023-01-19T10:48:07.894Z,12.73
2023-01-19T10:50:39.846Z,6.80
2023-01-19T10:53:23.790Z,8.77
2023-01-19T10:56:11.864Z,9.32
2023-01-19T10:58:40.257Z,11.75
2023-01-19T11:01:18.160Z,13.18
2023-01-19T11:03:47.907Z,8.25
2023-01-19T11:06:17.719Z,13.73
2023-01-19T11:08:47.267Z,11.75
2023-01-19T11:11:15.918Z,12.82
2023-01-19T11:13:44.037Z,7.18
2023-01-19T11:16:27.756Z,12.23
2023-01-19T11:18:56.628Z,12.80
2023-01-19T11:21:31.947Z,11.90
2023-01-19T11:24:05.432Z,8.65
2023-01-19T11:26:43.253Z,9.70
2023-01-19T11:29:19.856Z,8.20
2023-01-19T11:31:47.304Z,10.93
2023-01-19T11:34:33.864Z,9.65
2023-01-19T11:37:28.523Z,5.82
2023-01-19T11:40:00.187Z,12.73
2023-01-19T11:42:29.994Z,8.87
2023-01-19T11:45:07.407Z,14.25
2023-01-19T11:47:44.398Z,6.38
2023-01-19T11:50:42.576Z,7.38
2023-01-19T11:53:29.350Z,9.93
2023-01-19T11:56:04.827Z,7.75
2023-01-19T11:58:39.340Z,6.55
2023-01-19T12:01:29.809Z,5.93
2023-01-19T12:04:28.963Z,6.28
2023-01-19T12:06:58.130Z,8.60
2023-01-19T12:09:36.918Z,6.82
2023-01-19T12:12:07.705Z,9.20
2023-01-19T12:14:43.865Z,9.00
2023-01-19T12:17:27.680Z,3.05
2023-01-19T12:20:23.845Z,7.07
2023-01-19T12:23:11.715Z,6.70
2023-01-19T12:25:53.955Z,7.65
2023-01-19T12:28:28.642Z,5.43
2023-01-19T12:30:57.029Z,8.32
2023-01-19T12:33:37.652Z,5.18
2023-01-19T12:36:16.574Z,9.48
2023-01-19T12:38:48.789Z,4.25
2023-01-19T12:43:46.087Z,6.93
2023-01-19T12:46:32.058Z,4.20
2023-01-19T12:49:23.321Z,4.00
2023-01-19T12:51:52.993Z,5.80
2023-01-19T12:54:59.868Z,3.92
2023-01-19T12:57:47.082Z,5.57
2023-01-19T13:00:22.895Z,8.38
2023-01-19T13:02:54.486Z,6.68
2023-01-19T13:05:44.657Z,3.58
2023-01-19T13:08:14.964Z,7.18
2023-01-19T13:11:13.126Z,5.85
2023-01-19T13:13:44.688Z,5.03
2023-01-19T13:16:25.449Z,7.65
2023-01-19T13:18:57.144Z,5.32
2023-01-19T13:21:30.424Z,6.93
2023-01-19T13:23:59.309Z,5.45
2023-01-19T13:26:30.751Z,3.03
2023-01-19T13:29:06.303Z,7.25
2023-01-19T13:31:39.560Z,7.05
2023-01-19T13:34:13.544Z,5.43
2023-01-19T13:36:45.307Z,4.80
2023-01-19T13:39:18.669Z,11.27
2023-01-19T13:41:47.074Z,3.88
2023-01-19T13:44:29.957Z,5.25
2023-01-19T13:46:59.540Z,4.88
2023-01-19T13:49:36.873Z,3.50
2023-01-19T13:52:19.244Z,5.10
2023-01-19T13:54:53.343Z,4.97
2023-01-19T13:57:26.053Z,6.60
2023-01-19T14:02:59.240Z,5.57
2023-01-19T14:05:28.908Z,8.32
2023-01-19T14:08:13.350Z,14.55
2023-01-19T14:10:47.377Z,9.52
2023-01-19T14:13:22.940Z,9.65
2023-01-19T14:15:51.738Z,28.60
2023-01-19T14:18:21.538Z,13.15
2023-01-19T14:21:01.202Z,7.35
2023-01-19T14:24:06.876Z,5.65
2023-01-19T14:26:51.280Z,56.25
2023-01-19T14:29:37.980Z,10.10
2023-01-19T14:32:10.125Z,9.73
2023-01-19T14:34:41.640Z,13.95
2023-01-19T14:37:23.082Z,7.82
2023-01-19T14:39:54.480Z,3.95
2023-01-19T14:42:43.980Z,10.25
2023-01-19T14:45:38.028Z,4.93
2023-01-19T14:48:18.048Z,6.50
2023-01-19T14:51:01.556Z,8.73
2023-01-19T14:53:34.357Z,5.07
2023-01-19T14:56:04.849Z,2.57
2023-01-19T14:58:34.026Z,6.45
2023-01-19T15:01:01.877Z,9.60
2023-01-19T15:03:44.372Z,6.28
2023-01-19T15:06:17.626Z,3.10
2023-01-19T15:08:45.856Z,4.55
2023-01-19T15:11:26.534Z,4.55
2023-01-19T15:13:55.168Z,6.57
2023-01-19T15:16:26.105Z,6.68
2023-01-19T15:18:53.041Z,6.05
2023-01-19T15:21:23.482Z,6.35
2023-01-19T15:23:54.413Z,4.07
2023-01-19T15:26:24.716Z,4.07
2023-01-19T15:28:51.789Z,4.03
2023-01-19T15:31:21.951Z,6.50
2023-01-19T15:33:49.025Z,7.28
2023-01-19T15:36:18.591Z,8.48
2023-01-19T15:38:45.956Z,2.63
2023-01-19T15:41:23.505Z,2.47
2023-01-19T15:43:50.861Z,4.45
2023-01-19T15:46:20.796Z,7.15
2023-01-19T15:48:48.370Z,2.72
2023-01-19T15:51:17.766Z,7.57
2023-01-19T15:53:45.120Z,6.10
2023-01-19T15:56:17.182Z,5.43
2023-01-19T15:58:44.309Z,4.40
2023-01-19T16:01:17.119Z,5.60
2023-01-19T16:03:44.715Z,5.97
2023-01-19T16:06:12.962Z,6.88
2023-01-19T16:08:40.290Z,11.43
2023-01-19T16:11:14.816Z,10.80
2023-01-19T16:13:46.158Z,7.15
2023-01-19T16:16:19.000Z,5.78
2023-01-19T16:18:45.854Z,7.28
2023-01-19T16:21:12.759Z,4.65
2023-01-19T16:23:39.917Z,4.28
2023-01-19T16:26:22.262Z,5.28
2023-01-19T16:28:49.011Z,4.65
2023-01-19T16:31:16.482Z,6.55
2023-01-19T16:33:45.100Z,9.90
2023-01-19T16:36:41.787Z,10.13
2023-01-19T16:39:13.652Z,12.30
2023-01-19T16:41:40.761Z,13.63
2023-01-19T16:44:09.737Z,14.30
2023-01-19T16:46:40.956Z,14.48
2023-01-19T16:49:15.727Z,10.60
2023-01-19T16:51:44.648Z,7.00
2023-01-19T16:54:16.150Z,7.25
2023-01-19T16:56:43.219Z,6.53
2023-01-19T16:59:12.687Z,9.13
2023-01-19T17:01:40.091Z,12.23
2023-01-19T17:04:07.192Z,9.75
2023-01-19T17:06:49.909Z,9.33
2023-01-19T17:09:17.967Z,8.75
2023-01-19T17:11:45.667Z,8.60
2023-01-19T17:14:15.746Z,5.90
2023-01-19T17:16:43.730Z,9.23
2023-01-19T17:19:15.835Z,9.00
2023-01-19T17:21:46.208Z,9.13
2023-01-19T17:24:13.361Z,9.63
2023-01-19T17:26:40.781Z,13.43
2023-01-19T17:29:09.465Z,10.88
2023-01-19T17:31:36.781Z,8.63
2023-01-19T17:34:03.677Z,13.15
2023-01-19T17:36:32.172Z,7.53
2023-01-19T17:39:04.082Z,5.72
2023-01-19T17:41:32.805Z,8.20
2023-01-19T17:44:00.658Z,9.85
2023-01-19T17:46:29.170Z,11.68
2023-01-19T17:49:01.656Z,14.50
2023-01-19T17:51:30.109Z,14.10
2023-01-19T17:53:57.793Z,11.15
2023-01-19T17:56:29.533Z,17.23
2023-01-19T17:58:57.955Z,20.13
2023-01-19T18:01:27.574Z,14.80
2023-01-19T18:03:55.405Z,16.27
2023-01-19T18:06:24.282Z,15.77
2023-01-19T18:08:51.568Z,16.65
2023-01-19T18:11:20.788Z,21.83
2023-01-19T18:13:49.300Z,16.98
2023-01-19T18:16:27.855Z,21.83
2023-01-19T18:18:56.330Z,21.02
2023-01-19T18:21:24.895Z,20.10
2023-01-19T18:23:51.635Z,22.30
2023-01-19T18:26:22.576Z,20.83
2023-01-19T18:28:49.868Z,21.27
2023-01-19T18:31:18.793Z,31.88
2023-01-19T18:33:46.733Z,28.17
2023-01-19T18:36:14.423Z,28.60
2023-01-19T18:38:41.859Z,31.35
2023-01-19T18:41:11.734Z,25.30
2023-01-19T18:43:38.797Z,26.63
2023-01-19T18:46:06.373Z,30.05
2023-01-19T18:48:33.466Z,37.42
2023-01-19T18:51:03.552Z,31.05
2023-01-19T18:53:31.747Z,30.60
2023-01-19T18:56:01.812Z,32.13
2023-01-19T18:58:29.381Z,30.52
2023-01-19T19:00:56.831Z,34.75
2023-01-19T19:03:23.953Z,26.48
2023-01-19T19:05:50.906Z,32.38
2023-01-19T19:08:17.971Z,26.65
2023-01-19T19:10:45.153Z,23.70
2023-01-19T19:13:13.661Z,24.80
2023-01-19T19:15:40.502Z,26.17
2023-01-19T19:18:09.092Z,26.17
2023-01-19T19:20:38.951Z,31.63
2023-01-19T19:23:05.763Z,24.73
2023-01-19T19:25:33.144Z,22.05
2023-01-19T19:28:00.114Z,22.02
2023-01-19T19:30:26.910Z,27.13
2023-01-19T19:32:54.487Z,25.83
2023-01-19T19:35:21.601Z,19.30
2023-01-19T19:37:49.098Z,13.80
2023-01-19T19:40:16.396Z,9.57
2023-01-19T19:42:44.525Z,11.40
2023-01-19T19:45:11.912Z,9.32
2023-01-19T19:47:39.015Z,11.57
2023-01-19T19:50:06.093Z,8.48
2023-01-19T19:52:41.025Z,9.45
2023-01-19T19:55:09.563Z,9.50
2023-01-19T19:57:36.435Z,9.48
2023-01-19T20:00:07.216Z,8.48
2023-01-19T20:02:37.222Z,8.80
2023-01-19T20:05:04.998Z,9.95
2023-01-19T20:07:32.726Z,16.70
2023-01-19T20:09:59.450Z,9.32
2023-01-19T20:12:26.181Z,3.03
2023-01-19T20:14:52.927Z,3.58
2023-01-19T20:17:20.684Z,2.80
2023-01-19T20:19:48.927Z,4.13
2023-01-19T20:22:16.153Z,1.67
2023-01-19T20:24:45.699Z,2.30
2023-01-19T20:27:12.809Z,3.53
2023-01-19T20:29:39.604Z,2.47
2023-01-19T20:32:06.666Z,3.97
2023-01-19T20:34:33.917Z,3.47
2023-01-19T20:37:01.797Z,5.90
2023-01-19T20:39:30.249Z,5.10
2023-01-19T20:41:57.146Z,3.28
2023-01-19T20:44:25.467Z,5.35
2023-01-19T20:46:53.597Z,3.92
2023-01-19T20:49:20.786Z,3.95
2023-01-19T20:51:48.443Z,3.97
2023-01-19T20:54:17.594Z,4.78
2023-01-19T20:56:44.708Z,6.53
2023-01-19T20:59:12.703Z,3.58
2023-01-19T21:01:40.834Z,4.90
2023-01-19T21:04:07.971Z,10.25
2023-01-19T21:06:34.720Z,4.55
2023-01-19T21:09:01.607Z,4.40
2023-01-19T21:11:28.611Z,4.78
2023-01-19T21:13:56.494Z,3.20
2023-01-19T21:16:26.493Z,3.45
2023-01-19T21:18:53.977Z,3.63
2023-01-19T21:21:30.490Z,14.50
2023-01-19T21:24:01.771Z,8.45
2023-01-19T21:26:33.496Z,13.35
2023-01-19T21:29:01.675Z,9.20
2023-01-19T21:31:28.954Z,4.88
2023-01-19T21:33:56.883Z,5.13
2023-01-19T21:36:24.868Z,2.90
2023-01-19T21:38:52.579Z,6.40
2023-01-19T21:41:20.548Z,3.20
2023-01-19T21:43:47.886Z,6.40
2023-01-19T21:46:19.578Z,3.60
2023-01-19T21:48:47.098Z,4.85
2023-01-19T21:51:15.048Z,4.38
2023-01-19T21:53:41.994Z,9.73
2023-01-19T21:56:09.820Z,6.10
2023-01-19T21:58:36.567Z,4.82
2023-01-19T22:01:08.647Z,6.93
2023-01-19T22:03:35.374Z,7.53
2023-01-19T22:06:13.437Z,8.40
2023-01-19T22:08:41.337Z,8.02
2023-01-19T22:11:10.737Z,8.90
2023-01-19T22:13:40.866Z,7.38
2023-01-19T22:16:16.578Z,10.15
2023-01-19T22:18:45.783Z,8.27
2023-01-19T22:21:15.882Z,8.73
2023-01-19T22:23:43.166Z,7.18
2023-01-19T22:26:11.338Z,12.35
2023-01-19T22:28:38.538Z,5.85
2023-01-19T22:31:09.858Z,7.20
2023-01-19T22:33:36.908Z,5.95
2023-01-19T22:36:25.358Z,6.57
2023-01-19T22:38:57.422Z,6.80
2023-01-19T22:41:26.867Z,4.07
2023-01-19T22:43:56.357Z,6.32
2023-01-19T22:46:28.920Z,5.68
2023-01-19T22:48:56.553Z,5.35
2023-01-19T22:51:24.242Z,4.32
2023-01-19T22:53:51.895Z,4.28
2023-01-19T22:56:21.037Z,5.18
2023-01-19T22:58:48.403Z,5.93
2023-01-19T23:01:20.777Z,7.82
2023-01-19T23:03:47.572Z,5.60
2023-01-19T23:06:20.252Z,5.15
2023-01-19T23:11:20.267Z,5.20
2023-01-19T23:13:47.036Z,4.32
2023-01-19T23:16:14.433Z,5.28
2023-01-19T23:18:42.121Z,6.65
2023-01-19T23:21:17.923Z,6.60
2023-01-19T23:23:45.750Z,6.22
2023-01-19T23:26:18.371Z,6.43
2023-01-19T23:28:46.757Z,4.82
2023-01-19T23:31:17.553Z,4.30
2023-01-19T23:33:44.766Z,5.15
2023-01-19T23:36:12.360Z,5.95
2023-01-19T23:38:40.120Z,4.75
2023-01-19T23:41:07.611Z,4.95
2023-01-19T23:43:34.857Z,4.15
2023-01-19T23:46:06.238Z,4.35
2023-01-19T23:48:34.543Z,5.75
2023-01-19T23:51:13.777Z,4.63
2023-01-19T23:53:40.847Z,5.63
2023-01-19T23:56:14.617Z,7.63
2023-01-19T23:58:41.792Z,8.57
